createdAt,value
2023-02-08T00:01:20.716Z,-0.78
2023-02-08T00:03:49.072Z,-0.81
2023-02-08T00:06:17.616Z,-0.83
2023-02-08T00:08:46.191Z,-0.85
2023-02-08T00:11:13.964Z,-0.87
2023-02-08T00:13:42.796Z,-0.86
2023-02-08T00:16:12.776Z,-0.89
2023-02-08T00:18:41.411Z,-0.94
2023-02-08T00:21:14.336Z,-0.96
2023-02-08T00:23:42.430Z,-0.98
2023-02-08T00:26:10.476Z,-1.00
2023-02-08T00:28:38.760Z,-1.00
2023-02-08T00:31:06.934Z,-1.04
2023-02-08T00:33:35.592Z,-1.03
2023-02-08T00:36:07.814Z,-1.06
2023-02-08T00:38:36.085Z,-1.04
2023-02-08T00:41:03.963Z,-1.06
2023-02-08T00:43:32.125Z,-1.05
2023-02-08T01:02:07.102Z,-1.00
2023-02-08T01:04:35.042Z,-1.06
2023-02-08T01:07:02.808Z,-1.07
2023-02-08T01:09:32.059Z,-1.03
2023-02-08T01:11:59.913Z,-1.01
2023-02-08T01:14:28.160Z,-1.00
2023-02-08T01:16:55.917Z,-0.99
2023-02-08T01:19:24.407Z,-0.99
2023-02-08T01:21:52.198Z,-1.02
2023-02-08T01:24:19.946Z,-1.00
2023-02-08T01:26:47.946Z,-1.02
2023-02-08T01:29:16.054Z,-1.05
2023-02-08T01:31:46.483Z,-1.09
2023-02-08T01:34:14.370Z,-1.11
2023-02-08T01:36:44.301Z,-1.13
2023-02-08T01:39:12.622Z,-1.13
2023-02-08T01:41:44.384Z,-1.13
2023-02-08T01:44:12.156Z,-1.13
2023-02-08T01:46:42.343Z,-1.10
2023-02-08T01:49:33.155Z,-1.09
2023-02-08T01:52:23.516Z,-1.09
2023-02-08T01:55:00.804Z,-1.08
2023-02-08T01:57:29.329Z,-1.11
2023-02-08T02:00:02.382Z,-1.15
2023-02-08T02:02:43.863Z,-1.15
2023-02-08T02:05:12.142Z,-1.15
2023-02-08T02:07:41.109Z,-1.15
2023-02-08T02:10:35.033Z,-1.15
2023-02-08T02:13:19.771Z,-1.19
2023-02-08T02:15:50.315Z,-1.21
2023-02-08T02:18:24.648Z,-1.22
2023-02-08T02:21:03.121Z,-1.22
2023-02-08T02:23:39.881Z,-1.19
2023-02-08T02:26:22.652Z,-1.18
2023-02-08T02:29:18.249Z,-1.18
2023-02-08T02:31:52.056Z,-1.21
2023-02-08T02:34:31.824Z,-1.23
2023-02-08T02:37:12.233Z,-1.24
2023-02-08T02:39:45.841Z,-1.26
2023-02-08T02:43:21.684Z,-1.25
2023-02-08T02:46:27.289Z,-1.30
2023-02-08T02:49:19.826Z,-1.35
2023-02-08T02:52:06.293Z,-1.39
2023-02-08T02:54:40.469Z,-1.42
2023-02-08T02:57:12.611Z,-1.43
2023-02-08T02:59:41.678Z,-1.42
2023-02-08T03:02:10.451Z,-1.41
2023-02-08T03:04:41.408Z,-1.39
2023-02-08T03:07:17.644Z,-1.35
2023-02-08T03:09:57.313Z,-1.32
2023-02-08T03:13:17.901Z,-1.34
2023-02-08T03:16:02.077Z,-1.31
2023-02-08T03:18:48.352Z,-1.31
2023-02-08T03:21:25.298Z,-1.33
2023-02-08T03:24:06.165Z,-1.36
2023-02-08T03:26:39.268Z,-1.38
2023-02-08T03:29:30.812Z,-1.39
2023-02-08T03:32:09.287Z,-1.41
2023-02-08T03:34:46.186Z,-1.41
2023-02-08T03:37:16.556Z,-1.39
2023-02-08T03:39:47.218Z,-1.36
2023-02-08T03:42:24.824Z,-1.38
2023-02-08T03:45:02.916Z,-1.38
2023-02-08T03:47:37.570Z,-1.34
2023-02-08T03:50:09.606Z,-1.31
2023-02-08T03:52:38.824Z,-1.31
2023-02-08T03:55:16.372Z,-1.34
2023-02-08T03:57:44.056Z,-1.37
2023-02-08T04:00:15.149Z,-1.39
2023-02-08T04:02:52.032Z,-1.42
2023-02-08T04:05:21.795Z,-1.45
2023-02-08T04:07:50.534Z,-1.44
2023-02-08T04:10:18.510Z,-1.42
2023-02-08T04:12:48.919Z,-1.41
2023-02-08T04:15:17.376Z,-1.37
2023-02-08T04:17:45.611Z,-1.34
2023-02-08T04:20:13.642Z,-1.34
2023-02-08T04:22:41.433Z,-1.37
2023-02-08T04:25:09.199Z,-1.38
2023-02-08T04:27:36.960Z,-1.39
2023-02-08T04:30:05.631Z,-1.38
2023-02-08T04:32:33.644Z,-1.38
2023-02-08T04:35:01.599Z,-1.38
2023-02-08T04:37:29.461Z,-1.36
2023-02-08T04:39:57.172Z,-1.39
2023-02-08T04:42:24.990Z,-1.40
2023-02-08T04:44:52.759Z,-1.38
2023-02-08T04:47:20.532Z,-1.38
2023-02-08T04:49:48.261Z,-1.37
2023-02-08T04:52:16.000Z,-1.33
2023-02-08T04:54:43.767Z,-1.32
2023-02-08T04:57:15.322Z,-1.29
2023-02-08T04:59:43.131Z,-1.29
2023-02-08T05:02:10.863Z,-1.29
2023-02-08T05:04:38.655Z,-1.27
2023-02-08T05:07:06.452Z,-1.28
2023-02-08T05:09:34.181Z,-1.27
2023-02-08T05:12:01.891Z,-1.28
2023-02-08T05:14:29.681Z,-1.30
2023-02-08T05:16:57.394Z,-1.30
2023-02-08T05:19:25.132Z,-1.30
2023-02-08T05:21:52.992Z,-1.31
2023-02-08T05:24:20.783Z,-1.33
2023-02-08T05:26:48.561Z,-1.32
2023-02-08T05:29:17.323Z,-1.32
2023-02-08T05:31:45.144Z,-1.33
2023-02-08T05:34:12.961Z,-1.35
2023-02-08T05:36:40.773Z,-1.34
2023-02-08T05:39:08.570Z,-1.29
2023-02-08T05:41:36.505Z,-1.30
2023-02-08T05:44:06.899Z,-1.30
2023-02-08T05:46:37.067Z,-1.29
2023-02-08T05:49:06.183Z,-1.26
2023-02-08T05:51:34.080Z,-1.26
2023-02-08T05:54:01.855Z,-1.27
2023-02-08T05:56:29.838Z,-1.26
2023-02-08T05:59:00.794Z,-1.26
2023-02-08T06:01:28.628Z,-1.25
2023-02-08T06:03:56.920Z,-1.26
2023-02-08T06:06:24.778Z,-1.26
2023-02-08T06:08:52.563Z,-1.25
2023-02-08T06:11:20.576Z,-1.25
2023-02-08T06:13:48.528Z,-1.20
2023-02-08T06:16:19.542Z,-1.17
2023-02-08T06:18:47.625Z,-1.18
2023-02-08T06:21:15.498Z,-1.19
2023-02-08T06:23:43.176Z,-1.20
2023-02-08T06:26:10.893Z,-1.21
2023-02-08T06:28:38.880Z,-1.20
2023-02-08T06:31:06.590Z,-1.19
2023-02-08T06:33:34.545Z,-1.19
2023-02-08T06:36:02.426Z,-1.16
2023-02-08T06:38:30.124Z,-1.13
2023-02-08T06:40:57.869Z,-1.12
2023-02-08T06:43:26.021Z,-1.11
2023-02-08T06:45:53.815Z,-1.08
2023-02-08T06:48:21.545Z,-1.07
2023-02-08T06:50:53.762Z,-1.04
2023-02-08T06:53:21.626Z,-1.03
2023-02-08T06:55:50.334Z,-1.04
2023-02-08T06:58:18.861Z,-1.04
2023-02-08T07:00:47.127Z,-1.02
2023-02-08T07:03:17.486Z,-0.99
2023-02-08T07:05:59.016Z,-0.97
2023-02-08T07:08:33.786Z,-0.93
2023-02-08T07:11:06.501Z,-0.90
2023-02-08T07:13:34.483Z,-0.86
2023-02-08T07:16:03.513Z,-0.83
2023-02-08T07:18:31.655Z,-0.81
2023-02-08T07:20:59.654Z,-0.76
2023-02-08T07:23:27.917Z,-0.72
2023-02-08T07:26:00.861Z,-0.71
2023-02-08T07:28:29.775Z,-0.69
2023-02-08T07:30:57.762Z,-0.65
2023-02-08T07:33:26.387Z,-0.63
2023-02-08T07:35:54.267Z,-0.58
2023-02-08T07:38:21.997Z,-0.58
2023-02-08T07:40:49.775Z,-0.52
2023-02-08T07:43:17.487Z,-0.49
2023-02-08T07:45:50.838Z,-0.43
2023-02-08T07:48:18.679Z,-0.39
2023-02-08T07:50:46.568Z,-0.34
2023-02-08T07:53:14.390Z,-0.30
2023-02-08T07:55:42.214Z,-0.28
2023-02-08T07:58:09.947Z,-0.27
2023-02-08T08:00:37.806Z,-0.26
2023-02-08T08:03:05.754Z,-0.28
2023-02-08T08:05:34.779Z,-0.27
2023-02-08T08:08:02.921Z,-0.28
2023-02-08T08:10:31.330Z,-0.25
2023-02-08T08:12:59.112Z,-0.26
2023-02-08T08:15:27.478Z,-0.25
2023-02-08T08:17:55.580Z,-0.21
2023-02-08T08:20:24.435Z,-0.18
2023-02-08T08:22:52.259Z,-0.16
2023-02-08T08:25:20.174Z,-0.14
2023-02-08T08:27:48.156Z,-0.16
2023-02-08T08:30:16.968Z,-0.14
2023-02-08T08:32:44.845Z,-0.11
2023-02-08T08:35:12.815Z,-0.14
2023-02-08T08:37:40.800Z,-0.16
2023-02-08T08:40:09.633Z,-0.16
2023-02-08T08:42:39.871Z,-0.18
2023-02-08T08:45:09.008Z,-0.16
2023-02-08T08:47:37.010Z,-0.12
2023-02-08T08:50:05.190Z,-0.12
2023-02-08T08:52:32.924Z,-0.09
2023-02-08T08:55:00.688Z,-0.04
2023-02-08T08:57:28.454Z,-0.02
2023-02-08T08:59:56.178Z,-0.01
2023-02-08T09:02:23.925Z,0.07
2023-02-08T09:04:52.003Z,0.16
2023-02-08T09:07:19.844Z,0.23
2023-02-08T09:09:48.165Z,0.32
2023-02-08T09:12:16.178Z,0.40
2023-02-08T09:14:44.920Z,0.45
2023-02-08T09:17:12.701Z,0.54
2023-02-08T09:19:40.499Z,0.64
2023-02-08T09:22:08.601Z,0.68
2023-02-08T09:24:36.419Z,0.72
2023-02-08T09:27:04.453Z,0.74
2023-02-08T09:29:33.661Z,0.81
2023-02-08T09:32:01.496Z,0.85
2023-02-08T09:34:31.330Z,0.85
2023-02-08T09:36:59.041Z,0.87
2023-02-08T09:39:26.924Z,0.94
2023-02-08T09:42:33.134Z,0.97
2023-02-08T09:45:36.828Z,1.00
2023-02-08T09:48:35.139Z,0.93
2023-02-08T09:51:27.887Z,0.88
2023-02-08T09:54:08.121Z,0.87
2023-02-08T09:56:40.850Z,0.90
2023-02-08T09:59:31.479Z,0.92
2023-02-08T10:02:21.556Z,1.00
2023-02-08T10:04:52.040Z,1.00
2023-02-08T10:07:19.827Z,1.01
2023-02-08T10:09:48.065Z,0.99
2023-02-08T10:12:41.280Z,0.98
2023-02-08T10:15:30.663Z,0.96
2023-02-08T10:18:37.019Z,0.94
2023-02-08T10:21:19.962Z,1.01
2023-02-08T10:23:50.651Z,1.05
2023-02-08T10:26:47.103Z,1.07
2023-02-08T10:29:44.527Z,1.11
2023-02-08T10:32:27.388Z,1.09
2023-02-08T10:35:10.497Z,1.10
2023-02-08T10:37:42.117Z,1.15
2023-02-08T10:40:21.020Z,1.18
2023-02-08T10:42:58.282Z,1.25
2023-02-08T10:45:38.200Z,1.32
2023-02-08T10:48:12.703Z,1.37
2023-02-08T10:50:43.169Z,1.48
2023-02-08T10:53:16.687Z,1.56
2023-02-08T10:55:47.049Z,1.62
2023-02-08T10:58:19.117Z,1.64
2023-02-08T11:00:49.370Z,1.65
2023-02-08T11:03:29.094Z,1.67
2023-02-08T11:05:57.074Z,1.60
2023-02-08T11:08:27.767Z,1.51
2023-02-08T11:11:09.295Z,1.46
2023-02-08T11:13:42.456Z,1.45
2023-02-08T11:16:22.504Z,1.40
2023-02-08T11:18:52.526Z,1.41
2023-02-08T11:21:40.090Z,1.44
2023-02-08T11:24:23.123Z,1.52
2023-02-08T11:26:51.026Z,1.60
2023-02-08T11:29:30.780Z,1.67
2023-02-08T11:32:02.547Z,1.76
2023-02-08T11:34:35.333Z,1.87
2023-02-08T11:37:13.646Z,1.97
2023-02-08T11:39:49.777Z,2.06
2023-02-08T11:42:41.893Z,2.14
2023-02-08T11:45:21.188Z,2.25
2023-02-08T11:47:50.165Z,2.33
2023-02-08T11:50:31.460Z,2.36
2023-02-08T11:53:05.546Z,2.46
2023-02-08T11:55:35.044Z,2.57
2023-02-08T11:58:18.333Z,2.64
2023-02-08T12:01:00.147Z,2.73
2023-02-08T12:03:38.823Z,2.80
2023-02-08T12:06:28.173Z,2.78
2023-02-08T12:09:20.874Z,2.79
2023-02-08T12:11:56.506Z,2.84
2023-02-08T12:15:02.413Z,2.95
2023-02-08T12:17:48.959Z,2.98
2023-02-08T12:20:36.242Z,2.96
2023-02-08T12:23:09.736Z,2.89
2023-02-08T12:25:47.373Z,2.79
2023-02-08T12:28:35.701Z,2.67
2023-02-08T12:31:11.064Z,2.57
2023-02-08T12:33:57.224Z,2.51
2023-02-08T12:37:25.415Z,2.52
2023-02-08T12:40:46.419Z,2.55
2023-02-08T12:43:53.427Z,2.48
2023-02-08T12:46:27.412Z,2.53
2023-02-08T12:49:14.187Z,2.59
2023-02-08T12:52:01.402Z,2.67
2023-02-08T12:55:03.149Z,2.70
2023-02-08T12:57:32.851Z,2.75
2023-02-08T13:00:21.357Z,2.81
2023-02-08T13:03:31.934Z,2.82
2023-02-08T13:06:05.738Z,2.84
2023-02-08T13:08:48.137Z,2.89
2023-02-08T13:11:35.741Z,2.87
2023-02-08T13:14:10.374Z,2.79
2023-02-08T13:16:46.962Z,2.76
2023-02-08T13:19:58.140Z,2.62
2023-02-08T13:22:32.016Z,2.57
2023-02-08T13:25:07.672Z,2.51
2023-02-08T13:27:36.139Z,2.48
2023-02-08T13:30:05.482Z,2.53
2023-02-08T13:32:44.179Z,2.56
2023-02-08T13:35:17.782Z,2.60
2023-02-08T13:37:58.460Z,2.58
2023-02-08T13:40:30.169Z,2.46
2023-02-08T13:43:01.437Z,2.31
2023-02-08T13:45:37.372Z,2.17
2023-02-08T13:48:07.427Z,2.12
2023-02-08T13:50:35.116Z,2.08
2023-02-08T13:53:04.524Z,2.05
2023-02-08T13:55:33.426Z,2.00
2023-02-08T13:58:14.254Z,2.00
2023-02-08T14:00:53.868Z,1.99
2023-02-08T14:03:30.921Z,1.94
2023-02-08T14:06:09.170Z,1.88
2023-02-08T14:08:39.895Z,1.80
2023-02-08T14:11:24.666Z,1.78
2023-02-08T14:14:17.894Z,1.74
2023-02-08T14:17:06.585Z,1.74
2023-02-08T14:19:37.090Z,1.75
2023-02-08T14:22:04.854Z,1.74
2023-02-08T14:24:38.932Z,1.75
2023-02-08T14:27:19.740Z,1.72
2023-02-08T14:29:59.485Z,1.65
2023-02-08T14:32:31.507Z,1.59
2023-02-08T14:35:04.099Z,1.55
2023-02-08T14:37:33.936Z,1.53
2023-02-08T14:40:16.855Z,1.48
2023-02-08T14:43:17.083Z,1.39
2023-02-08T14:45:46.741Z,1.32
2023-02-08T14:48:20.860Z,1.28
2023-02-08T14:51:31.938Z,1.22
2023-02-08T14:54:15.363Z,1.15
2023-02-08T14:56:55.086Z,1.11
2023-02-08T14:59:26.963Z,1.06
2023-02-08T15:01:59.666Z,1.00
2023-02-08T15:04:27.898Z,0.97
2023-02-08T15:07:13.836Z,0.90
2023-02-08T15:09:42.975Z,0.84
2023-02-08T15:12:16.566Z,0.79
2023-02-08T15:15:21.700Z,0.68
2023-02-08T15:17:52.242Z,0.51
2023-02-08T15:20:26.479Z,0.44
2023-02-08T15:23:20.959Z,0.41
2023-02-08T15:26:02.438Z,0.38
2023-02-08T15:28:33.718Z,0.32
2023-02-08T15:31:06.260Z,0.30
2023-02-08T15:33:34.737Z,0.25
2023-02-08T15:36:08.386Z,0.17
2023-02-08T15:38:38.847Z,0.12
2023-02-08T15:41:10.631Z,0.04
2023-02-08T15:43:40.257Z,-0.03
2023-02-08T15:46:18.794Z,-0.19
2023-02-08T15:48:48.780Z,-0.40
2023-02-08T15:51:17.608Z,-0.52
2023-02-08T15:53:48.783Z,-0.60
2023-02-08T15:56:34.265Z,-0.70
2023-02-08T15:59:07.763Z,-0.87
2023-02-08T16:01:35.813Z,-1.02
2023-02-08T16:04:12.633Z,-1.13
2023-02-08T16:06:47.703Z,-1.23
2023-02-08T16:09:22.373Z,-1.35
2023-02-08T16:11:51.568Z,-1.46
2023-02-08T16:14:26.971Z,-1.52
2023-02-08T16:16:58.215Z,-1.55
2023-02-08T16:19:33.956Z,-1.58
2023-02-08T16:22:13.861Z,-1.60
2023-02-08T16:24:41.738Z,-1.61
2023-02-08T16:27:26.078Z,-1.64
2023-02-08T16:29:54.015Z,-1.66
2023-02-08T16:32:28.431Z,-1.65
2023-02-08T16:34:56.626Z,-1.67
2023-02-08T16:37:31.932Z,-1.73
2023-02-08T16:40:02.453Z,-1.78
2023-02-08T16:42:40.948Z,-1.79
2023-02-08T16:45:12.809Z,-1.80
2023-02-08T16:47:53.726Z,-1.81
2023-02-08T16:50:24.626Z,-1.83
2023-02-08T16:52:59.710Z,-1.87
2023-02-08T16:55:30.854Z,-1.87
2023-02-08T16:57:59.658Z,-1.89
2023-02-08T17:00:35.338Z,-1.96
2023-02-08T17:03:03.472Z,-2.07
2023-02-08T17:05:36.580Z,-2.11
2023-02-08T17:08:09.989Z,-2.16
2023-02-08T17:10:38.773Z,-2.26
2023-02-08T17:13:19.834Z,-2.35
2023-02-08T17:15:50.635Z,-2.48
2023-02-08T17:18:19.217Z,-2.60
2023-02-08T17:20:47.185Z,-2.65
2023-02-08T17:23:16.685Z,-2.61
2023-02-08T17:25:45.073Z,-2.58
2023-02-08T17:28:18.262Z,-2.63
2023-02-08T17:30:47.384Z,-2.73
2023-02-08T17:33:18.501Z,-2.74
2023-02-08T17:35:49.268Z,-2.76
2023-02-08T17:38:19.043Z,-2.77
2023-02-08T17:40:47.216Z,-2.78
2023-02-08T17:43:15.194Z,-2.80
2023-02-08T17:45:44.575Z,-2.89
2023-02-08T17:48:13.601Z,-3.01
2023-02-08T17:50:48.107Z,-3.07
2023-02-08T17:53:16.084Z,-3.13
2023-02-08T17:55:45.761Z,-3.20
2023-02-08T17:58:13.690Z,-3.24
2023-02-08T18:00:41.743Z,-3.27
2023-02-08T18:03:09.572Z,-3.28
2023-02-08T18:05:37.669Z,-3.29
2023-02-08T18:08:05.472Z,-3.32
2023-02-08T18:10:33.440Z,-3.29
2023-02-08T18:13:01.236Z,-3.23
2023-02-08T18:15:29.004Z,-3.18
2023-02-08T18:17:56.975Z,-3.25
2023-02-08T18:20:25.097Z,-3.25
2023-02-08T18:22:52.894Z,-3.21
2023-02-08T18:25:20.812Z,-3.24
2023-02-08T18:27:48.716Z,-3.27
2023-02-08T18:30:16.489Z,-3.32
2023-02-08T18:32:44.373Z,-3.48
2023-02-08T18:35:12.660Z,-3.57
2023-02-08T18:37:40.422Z,-3.66
2023-02-08T18:40:09.142Z,-3.74
2023-02-08T18:42:37.039Z,-3.82
2023-02-08T18:45:05.833Z,-3.95
2023-02-08T18:47:35.980Z,-4.06
2023-02-08T18:50:04.196Z,-4.12
2023-02-08T18:52:32.119Z,-4.15
2023-02-08T18:55:00.014Z,-4.14
2023-02-08T18:57:27.837Z,-4.09
2023-02-08T18:59:56.126Z,-4.05
2023-02-08T19:02:26.364Z,-4.13
2023-02-08T19:04:54.254Z,-4.23
2023-02-08T19:07:22.051Z,-4.33
2023-02-08T19:09:49.939Z,-4.34
2023-02-08T19:12:19.001Z,-4.33
2023-02-08T19:14:50.757Z,-4.34
2023-02-08T19:17:19.234Z,-4.41
2023-02-08T19:19:47.721Z,-4.54
2023-02-08T19:22:15.633Z,-4.69
2023-02-08T19:24:43.419Z,-4.78
2023-02-08T19:27:11.226Z,-4.81
2023-02-08T19:29:39.111Z,-4.87
2023-02-08T19:32:08.231Z,-4.86
2023-02-08T19:34:36.012Z,-4.83
2023-02-08T19:37:03.929Z,-4.81
2023-02-08T19:39:31.752Z,-4.80
2023-02-08T19:41:59.539Z,-4.77
2023-02-08T19:44:30.294Z,-4.77
2023-02-08T19:46:58.574Z,-4.85
2023-02-08T19:49:28.267Z,-4.99
2023-02-08T19:51:56.421Z,-5.08
2023-02-08T19:54:24.600Z,-5.11
2023-02-08T19:56:54.967Z,-5.17
2023-02-08T19:59:26.799Z,-5.24
2023-02-08T20:01:55.783Z,-5.31
2023-02-08T20:04:24.497Z,-5.33
2023-02-08T20:06:53.488Z,-5.31
2023-02-08T20:09:21.295Z,-5.20
2023-02-08T20:26:09.485Z,-4.07
2023-02-08T20:28:39.187Z,-3.91
2023-02-08T20:31:12.003Z,-3.93
2023-02-08T20:33:38.509Z,-3.95
2023-02-08T20:36:14.662Z,-3.98
2023-02-08T20:38:41.339Z,-4.08
2023-02-08T20:41:11.034Z,-4.18
2023-02-08T20:43:37.599Z,-4.24
2023-02-08T20:46:06.450Z,-4.26
2023-02-08T20:48:33.217Z,-4.26
2023-02-08T20:51:04.990Z,-4.27
2023-02-08T20:53:31.656Z,-4.26
2023-02-08T20:55:57.973Z,-4.28
2023-02-08T20:58:24.539Z,-4.29
2023-02-08T21:00:51.520Z,-4.33
2023-02-08T21:03:18.038Z,-4.44
2023-02-08T21:05:44.396Z,-4.55
2023-02-08T21:08:10.735Z,-4.65
2023-02-08T21:10:37.285Z,-4.76
2023-02-08T21:13:03.706Z,-4.84
2023-02-08T21:15:30.175Z,-4.94
2023-02-08T21:17:56.702Z,-4.99
2023-02-08T21:20:23.207Z,-5.09
2023-02-08T21:22:49.622Z,-5.14
2023-02-08T21:25:16.068Z,-5.18
2023-02-08T21:27:42.478Z,-5.20
2023-02-08T21:30:09.680Z,-5.23
2023-02-08T21:32:36.052Z,-5.26
2023-02-08T21:35:02.389Z,-5.24
2023-02-08T21:37:28.715Z,-5.21
2023-02-08T21:39:55.052Z,-5.20
2023-02-08T21:42:21.370Z,-5.19
2023-02-08T21:44:47.797Z,-5.21
2023-02-08T21:47:14.119Z,-5.28
2023-02-08T21:49:59.230Z,-5.31
2023-02-08T21:52:44.295Z,-5.19
2023-02-08T21:55:10.653Z,-5.22
2023-02-08T21:57:40.440Z,-5.29
2023-02-08T22:00:09.877Z,-5.30
2023-02-08T22:02:43.121Z,-5.27
2023-02-08T22:05:09.609Z,-5.28
2023-02-08T22:07:48.754Z,-5.35
2023-02-08T22:10:17.960Z,-5.48
2023-02-08T22:12:46.532Z,-5.57
2023-02-08T22:15:15.939Z,-5.63
2023-02-08T22:17:43.008Z,-5.68
2023-02-08T22:20:11.661Z,-5.73
2023-02-08T22:22:38.213Z,-5.80
2023-02-08T22:25:05.154Z,-5.80
2023-02-08T22:27:31.791Z,-5.79
2023-02-08T22:29:58.219Z,-5.76
2023-02-08T22:32:24.620Z,-5.71
2023-02-08T22:34:51.109Z,-5.65
2023-02-08T22:37:17.658Z,-5.59
2023-02-08T22:39:44.132Z,-5.54
2023-02-08T22:42:13.410Z,-5.51
2023-02-08T22:44:43.963Z,-5.38
2023-02-08T22:47:12.392Z,-5.43
2023-02-08T22:49:39.055Z,-5.46
2023-02-08T22:52:08.151Z,-5.47
2023-02-08T22:54:35.373Z,-5.48
2023-02-08T22:57:03.292Z,-5.50
2023-02-08T22:59:29.761Z,-5.52
2023-02-08T23:01:56.967Z,-5.62
2023-02-08T23:04:23.634Z,-5.79
2023-02-08T23:06:50.252Z,-5.89
2023-02-08T23:09:17.057Z,-6.03
2023-02-08T23:11:43.457Z,-6.15
2023-02-08T23:14:10.093Z,-6.23
2023-02-08T23:16:37.232Z,-6.27
2023-02-08T23:19:04.528Z,-6.28
2023-02-08T23:21:31.110Z,-6.23
2023-02-08T23:23:57.687Z,-6.13
2023-02-08T23:26:24.307Z,-5.99
2023-02-08T23:28:52.268Z,-5.86
2023-02-08T23:31:20.191Z,-5.72
2023-02-08T23:33:46.857Z,-5.59
2023-02-08T23:36:16.549Z,-5.52
2023-02-08T23:38:43.090Z,-5.48
2023-02-08T23:41:19.486Z,-5.50
2023-02-08T23:43:46.540Z,-5.51
2023-02-08T23:46:16.810Z,-5.59
2023-02-08T23:48:43.587Z,-5.67
2023-02-08T23:51:10.022Z,-5.72
2023-02-08T23:53:37.550Z,-5.76
2023-02-08T23:56:07.560Z,-5.83
2023-02-08T23:58:34.506Z,-5.93
